Time;durP1;ratioP1;P1;durP2;ratioP2;P2;SDS_P1;SDS_P2;PMS_P1;PMS_P2;Temp;Humidity;BMP_temperature;BMP_pressure;BME280_temperature;BME280_humidity;BME280_pressure;Samples;Min_cycle;Max_cycle;Signal;HPM_P1;HPM_P2
2023/08/24 00:01:16;;;;;;;3.53;3.17;;;16.70;99.90;;;;;;5074101;28;20181;-73
2023/08/24 00:03:44;;;;;;;4.07;3.30;;;16.70;99.90;;;;;;5074785;28;20165;-73
2023/08/24 00:06:10;;;;;;;4.20;3.80;;;16.60;99.90;;;;;;5068870;28;20419;-68
2023/08/24 00:08:37;;;;;;;3.90;3.50;;;16.60;99.90;;;;;;5054928;28;20964;-70
2023/08/24 00:11:02;;;;;;;4.43;4.03;;;16.60;99.90;;;;;;5056820;28;20443;-73
2023/08/24 00:13:28;;;;;;;4.10;3.00;;;16.50;99.90;;;;;;5075134;28;20827;-75
2023/08/24 00:15:54;;;;;;;4.73;3.80;;;16.50;99.90;;;;;;5073297;28;20166;-69
2023/08/24 00:18:21;;;;;;;4.17;3.20;;;16.50;99.90;;;;;;5074891;28;20635;-69
2023/08/24 00:20:48;;;;;;;4.03;3.27;;;16.50;99.90;;;;;;5074512;28;20407;-76
2023/08/24 00:23:14;;;;;;;4.57;3.67;;;16.50;99.90;;;;;;5074851;28;20927;-75
2023/08/24 00:25:43;;;;;;;2.87;2.67;;;16.50;99.90;;;;;;5072307;28;20432;-70
2023/08/24 00:28:08;;;;;;;10.63;3.20;;;16.50;99.90;;;;;;5073251;28;20205;-75
2023/08/24 00:30:34;;;;;;;2.90;2.70;;;16.40;99.90;;;;;;5073707;28;20943;-69
2023/08/24 00:33:00;;;;;;;4.63;2.90;;;16.40;99.90;;;;;;5074792;28;20679;-76
2023/08/24 00:35:26;;;;;;;3.00;2.80;;;16.30;99.90;;;;;;5072918;28;20451;-76
2023/08/24 00:37:51;;;;;;;7.13;3.23;;;16.30;99.90;;;;;;5074479;28;20217;-70
2023/08/24 00:40:18;;;;;;;4.20;3.80;;;16.30;99.90;;;;;;5072465;28;20685;-71
2023/08/24 00:42:48;;;;;;;6.07;3.80;;;16.30;99.90;;;;;;5060363;28;20181;-73
2023/08/24 00:45:14;;;;;;;3.10;2.80;;;16.20;99.90;;;;;;5052598;28;20903;-72
2023/08/24 00:47:42;;;;;;;3.40;2.70;;;16.20;99.90;;;;;;5054273;28;20510;-70
2023/08/24 00:50:09;;;;;;;3.17;2.97;;;16.10;99.90;;;;;;5054469;28;20492;-75
2023/08/24 00:52:39;;;;;;;7.00;3.40;;;16.10;99.90;;;;;;5053809;28;20425;-75
2023/08/24 00:55:05;;;;;;;8.83;3.00;;;16.00;99.90;;;;;;5052056;28;20858;-75
2023/08/24 00:57:32;;;;;;;2.93;2.63;;;16.00;99.90;;;;;;5062238;28;20491;-73
2023/08/24 00:59:59;;;;;;;9.80;3.13;;;16.00;99.90;;;;;;5073676;28;20408;-71
2023/08/24 01:02:25;;;;;;;4.80;3.10;;;15.90;99.90;;;;;;5070343;28;20524;-70
2023/08/24 01:04:51;;;;;;;3.90;3.60;;;15.90;99.90;;;;;;5053861;28;20489;-75
2023/08/24 01:07:18;;;;;;;3.70;3.40;;;15.90;99.90;;;;;;5052114;28;20210;-75
2023/08/24 01:09:44;;;;;;;5.87;4.30;;;15.90;99.90;;;;;;5052729;28;20418;-75
2023/08/24 01:12:32;;;;;;;3.73;3.40;;;15.80;99.90;;;;;;5052714;28;20937;-70
2023/08/24 01:15:11;;;;;;;4.53;3.17;;;15.90;99.90;;;;;;5053253;28;20909;-70
2023/08/24 01:17:39;;;;;;;4.50;4.07;;;15.90;99.90;;;;;;5053618;28;20925;-70
2023/08/24 01:20:06;;;;;;;4.17;3.83;;;15.90;99.90;;;;;;5055480;28;20437;-75
2023/08/24 01:22:38;;;;;;;5.63;3.53;;;15.90;99.90;;;;;;5073722;28;20415;-69
2023/08/24 01:25:24;;;;;;;4.43;4.03;;;15.90;99.90;;;;;;5052346;28;20441;-71
2023/08/24 01:27:51;;;;;;;4.17;3.83;;;15.90;99.90;;;;;;5052812;28;20473;-76
2023/08/24 01:30:19;;;;;;;9.77;5.10;;;15.90;99.90;;;;;;5054827;28;20471;-76
2023/08/24 01:32:45;;;;;;;5.33;4.53;;;15.90;99.90;;;;;;5053161;28;20410;-76
2023/08/24 01:35:11;;;;;;;6.80;4.50;;;15.90;99.90;;;;;;5052553;28;20404;-76
2023/08/24 01:37:38;;;;;;;4.33;4.03;;;15.90;99.90;;;;;;5053371;28;20615;-69
2023/08/24 01:40:12;;;;;;;5.90;4.97;;;15.90;99.90;;;;;;5055828;28;20463;-75
2023/08/24 01:42:48;;;;;;;5.03;4.00;;;15.80;99.90;;;;;;5059739;28;20435;-76
2023/08/24 01:45:16;;;;;;;4.13;3.83;;;15.80;99.90;;;;;;5072386;28;20408;-76
2023/08/24 01:47:43;;;;;;;10.60;5.50;;;15.80;99.90;;;;;;5072021;28;20460;-75
2023/08/24 01:50:10;;;;;;;8.77;5.30;;;15.80;99.90;;;;;;5056783;28;20429;-75
2023/08/24 01:52:35;;;;;;;8.13;5.43;;;15.80;99.90;;;;;;5066224;28;20871;-75
2023/08/24 01:55:01;;;;;;;5.03;4.60;;;15.90;99.90;;;;;;5052460;28;20516;-76
2023/08/24 01:57:27;;;;;;;5.27;4.77;;;15.90;99.90;;;;;;5055610;28;20491;-76
2023/08/24 01:59:53;;;;;;;5.67;4.70;;;15.90;99.90;;;;;;5051865;28;20417;-70
2023/08/24 02:02:20;;;;;;;5.63;5.00;;;15.90;99.90;;;;;;5059149;28;20209;-75
2023/08/24 02:04:46;;;;;;;4.93;4.50;;;15.90;99.90;;;;;;5063765;28;20647;-70
2023/08/24 02:07:12;;;;;;;8.73;5.27;;;15.90;99.90;;;;;;5071578;28;20459;-69
2023/08/24 02:09:37;;;;;;;5.30;4.90;;;15.90;99.90;;;;;;5072645;28;20311;-72
2023/08/24 02:12:03;;;;;;;5.87;4.07;;;15.90;99.90;;;;;;5072718;28;20168;-75
2023/08/24 02:14:29;;;;;;;9.37;5.40;;;15.90;99.90;;;;;;5052834;28;20270;-76
2023/08/24 02:16:55;;;;;;;7.77;4.77;;;15.90;99.90;;;;;;5052048;28;20477;-73
2023/08/24 02:19:20;;;;;;;7.50;5.57;;;15.90;99.90;;;;;;5052862;28;20188;-70
2023/08/24 02:21:46;;;;;;;4.60;4.20;;;15.90;99.90;;;;;;5051557;28;20175;-69
2023/08/24 02:24:12;;;;;;;6.50;5.60;;;15.90;99.90;;;;;;5069076;28;20269;-72
2023/08/24 02:26:37;;;;;;;7.50;6.73;;;15.90;99.90;;;;;;5070044;28;20186;-75
2023/08/24 02:29:03;;;;;;;7.53;6.50;;;15.90;99.90;;;;;;5071220;28;20225;-70
2023/08/24 02:31:29;;;;;;;5.90;5.33;;;15.80;99.90;;;;;;5072779;28;20170;-75
2023/08/24 02:33:55;;;;;;;6.67;5.50;;;15.90;99.90;;;;;;5057562;28;20429;-76
2023/08/24 02:36:20;;;;;;;11.07;6.33;;;15.80;99.90;;;;;;5051840;28;20520;-75
2023/08/24 02:38:47;;;;;;;8.00;6.13;;;15.80;99.90;;;;;;5052677;28;20195;-75
2023/08/24 02:41:14;;;;;;;6.30;5.20;;;15.80;99.90;;;;;;5052667;28;20201;-75
2023/08/24 02:43:40;;;;;;;8.00;5.70;;;15.80;99.90;;;;;;5063296;28;20440;-69
2023/08/24 02:46:08;;;;;;;7.17;5.50;;;15.80;99.90;;;;;;5071276;28;20408;-74
2023/08/24 02:48:34;;;;;;;5.87;5.40;;;15.80;99.90;;;;;;5072512;28;20483;-69
2023/08/24 02:51:02;;;;;;;11.43;6.10;;;15.80;99.90;;;;;;5071264;28;20951;-73
2023/08/24 02:53:28;;;;;;;9.67;6.00;;;15.80;99.90;;;;;;5061671;28;20428;-72
2023/08/24 02:55:55;;;;;;;9.90;6.93;;;15.70;99.90;;;;;;5051623;28;21154;-74
2023/08/24 02:58:21;;;;;;;7.50;6.10;;;15.80;99.90;;;;;;5051866;28;20465;-75
2023/08/24 03:00:47;;;;;;;6.93;6.30;;;15.70;99.90;;;;;;5052598;28;20405;-70
2023/08/24 03:03:15;;;;;;;7.43;5.87;;;15.70;99.90;;;;;;5052350;28;20175;-74
2023/08/24 03:05:40;;;;;;;7.20;6.60;;;15.70;99.90;;;;;;5054242;28;20224;-70
2023/08/24 03:08:06;;;;;;;6.27;5.67;;;15.70;99.90;;;;;;5055682;28;20468;-75
2023/08/24 03:10:35;;;;;;;6.20;5.60;;;15.70;99.90;;;;;;5056295;28;20417;-75
2023/08/24 03:13:01;;;;;;;7.73;6.90;;;15.60;99.90;;;;;;5057519;28;20192;-74
2023/08/24 03:15:27;;;;;;;6.80;6.20;;;15.60;99.90;;;;;;5056409;28;20433;-69
2023/08/24 03:17:53;;;;;;;4.90;4.50;;;15.60;99.90;;;;;;5055967;28;20917;-73
2023/08/24 03:20:19;;;;;;;4.50;4.10;;;15.50;99.90;;;;;;5068751;28;20187;-69
2023/08/24 03:22:45;;;;;;;4.00;3.43;;;15.40;99.90;;;;;;5055939;28;20174;-71
2023/08/24 03:25:10;;;;;;;6.50;3.83;;;15.30;99.90;;;;;;5070105;28;20478;-75
2023/08/24 03:27:37;;;;;;;4.30;4.00;;;15.20;99.90;;;;;;5055759;28;20206;-75
2023/08/24 03:30:04;;;;;;;3.07;2.87;;;15.20;99.90;;;;;;5071757;28;20186;-69
2023/08/24 03:32:30;;;;;;;3.20;3.00;;;15.10;99.90;;;;;;5075902;28;20924;-75
2023/08/24 03:35:00;;;;;;;4.23;3.90;;;15.10;99.90;;;;;;5075513;28;20401;-75
2023/08/24 03:37:25;;;;;;;6.47;5.37;;;15.00;99.90;;;;;;5074327;28;20201;-75
2023/08/24 03:39:51;;;;;;;5.07;4.67;;;15.00;99.90;;;;;;5059875;28;20486;-75
2023/08/24 03:42:17;;;;;;;4.63;4.10;;;15.10;99.90;;;;;;5055376;28;20202;-70
2023/08/24 03:44:42;;;;;;;4.97;4.20;;;15.10;99.90;;;;;;5066860;28;20178;-70
2023/08/24 03:47:08;;;;;;;8.37;4.60;;;15.00;99.90;;;;;;5074332;28;20218;-70
2023/08/24 03:49:34;;;;;;;4.23;3.90;;;15.00;99.90;;;;;;5074559;28;20181;-75
2023/08/24 03:52:00;;;;;;;4.17;3.87;;;15.00;99.90;;;;;;5060927;28;20433;-70
2023/08/24 03:54:26;;;;;;;5.13;4.23;;;14.90;99.90;;;;;;5055324;28;20670;-75
2023/08/24 03:56:51;;;;;;;4.60;4.10;;;14.90;99.90;;;;;;5054576;28;20246;-75
2023/08/24 03:59:17;;;;;;;6.23;4.17;;;14.90;99.90;;;;;;5053639;28;20193;-72
2023/08/24 04:01:43;;;;;;;5.23;4.10;;;14.90;99.90;;;;;;5054932;28;20187;-74
2023/08/24 04:04:08;;;;;;;4.20;3.90;;;14.80;99.90;;;;;;5055327;28;20718;-73
2023/08/24 04:06:34;;;;;;;5.03;4.00;;;14.80;99.90;;;;;;5054349;28;20623;-73
2023/08/24 04:09:00;;;;;;;5.00;4.37;;;14.80;99.90;;;;;;5054764;28;20567;-74
2023/08/24 04:11:25;;;;;;;4.03;3.73;;;14.80;99.90;;;;;;5055000;28;20179;-75
2023/08/24 04:13:51;;;;;;;4.57;3.70;;;14.80;99.90;;;;;;5055037;28;20167;-69
2023/08/24 04:16:17;;;;;;;4.03;3.63;;;14.80;99.90;;;;;;5053413;28;20178;-75
2023/08/24 04:18:43;;;;;;;5.97;5.20;;;14.80;99.90;;;;;;5053341;28;21012;-69
2023/08/24 04:21:08;;;;;;;4.73;4.33;;;14.80;99.90;;;;;;5054969;28;20669;-69
2023/08/24 04:23:34;;;;;;;4.90;4.50;;;14.80;99.90;;;;;;5054955;28;20682;-72
2023/08/24 04:26:00;;;;;;;5.33;4.67;;;14.80;99.90;;;;;;5054821;28;20263;-75
2023/08/24 04:28:25;;;;;;;5.40;5.00;;;14.80;99.90;;;;;;5071592;28;20233;-76
2023/08/24 04:30:52;;;;;;;5.17;4.43;;;14.70;99.90;;;;;;5058909;28;20217;-75
2023/08/24 04:33:18;;;;;;;4.53;4.13;;;14.70;99.90;;;;;;5060990;28;20179;-71
2023/08/24 04:35:49;;;;;;;6.33;4.60;;;14.70;99.90;;;;;;5052103;28;20406;-71
2023/08/24 04:38:15;;;;;;;7.20;4.63;;;14.60;99.90;;;;;;5054527;28;20452;-73
2023/08/24 04:40:50;;;;;;;5.20;4.70;;;14.60;99.90;;;;;;5054679;28;20435;-75
2023/08/24 04:43:17;;;;;;;5.20;4.70;;;14.60;99.90;;;;;;5067782;28;20436;-69
2023/08/24 04:45:45;;;;;;;5.57;4.63;;;14.60;99.90;;;;;;5071959;28;20432;-73
2023/08/24 04:48:11;;;;;;;5.57;3.80;;;14.60;99.90;;;;;;5071673;28;20503;-76
2023/08/24 04:50:36;;;;;;;4.33;3.93;;;14.60;99.90;;;;;;5074371;28;20428;-75
2023/08/24 04:53:02;;;;;;;4.93;4.27;;;14.60;99.90;;;;;;5074278;28;20216;-75
2023/08/24 04:55:28;;;;;;;4.57;4.20;;;14.60;99.90;;;;;;5072951;28;20174;-75
2023/08/24 04:57:53;;;;;;;4.37;3.97;;;14.60;99.90;;;;;;5073272;28;20194;-75
2023/08/24 05:00:19;;;;;;;4.40;4.00;;;14.60;99.90;;;;;;5071612;28;20191;-70
2023/08/24 05:02:45;;;;;;;8.20;4.17;;;14.60;99.90;;;;;;5073130;28;20189;-69
2023/08/24 05:05:10;;;;;;;4.63;4.23;;;14.60;99.90;;;;;;5071546;28;20205;-75
2023/08/24 05:07:40;;;;;;;4.43;4.03;;;14.70;99.90;;;;;;5073849;28;20327;-70
2023/08/24 05:10:07;;;;;;;7.07;4.77;;;14.70;99.90;;;;;;5074109;28;20192;-71
2023/08/24 05:12:35;;;;;;;4.80;4.40;;;14.70;99.90;;;;;;5073276;28;20935;-75
2023/08/24 05:15:02;;;;;;;5.77;4.60;;;14.70;99.90;;;;;;5071813;28;20436;-75
2023/08/24 05:17:28;;;;;;;8.73;5.40;;;14.80;99.90;;;;;;5056451;28;20460;-75
2023/08/24 05:19:54;;;;;;;6.07;5.47;;;14.90;99.90;;;;;;5052585;28;20416;-74
2023/08/24 05:22:20;;;;;;;6.93;6.23;;;14.90;99.90;;;;;;5053838;28;20441;-69
2023/08/24 05:24:46;;;;;;;20.33;9.37;;;15.00;99.90;;;;;;5061877;28;20428;-70
2023/08/24 05:27:12;;;;;;;11.53;8.07;;;15.10;99.90;;;;;;5072331;28;20467;-71
2023/08/24 05:29:38;;;;;;;13.30;8.47;;;15.20;99.90;;;;;;5070230;28;20623;-70
2023/08/24 05:32:04;;;;;;;11.00;7.77;;;15.20;99.90;;;;;;5073707;28;20594;-74
2023/08/24 05:34:29;;;;;;;8.80;7.10;;;15.30;99.90;;;;;;5072626;28;20182;-69
2023/08/24 05:36:55;;;;;;;8.67;7.30;;;15.40;99.90;;;;;;5071436;28;20174;-70
2023/08/24 05:39:21;;;;;;;11.07;8.07;;;15.40;99.90;;;;;;5073609;28;20174;-69
2023/08/24 05:41:52;;;;;;;8.90;7.07;;;15.50;99.90;;;;;;5073426;28;20174;-70
2023/08/24 05:44:21;;;;;;;10.00;7.50;;;15.50;99.90;;;;;;5071860;28;20538;-71
2023/08/24 05:46:47;;;;;;;7.60;6.60;;;15.60;99.90;;;;;;5072477;28;20408;-71
2023/08/24 05:49:13;;;;;;;11.73;6.80;;;15.60;99.90;;;;;;5071580;28;20433;-72
2023/08/24 05:51:39;;;;;;;12.37;7.03;;;15.60;99.90;;;;;;5071089;28;20181;-69
2023/08/24 05:54:05;;;;;;;7.73;6.63;;;15.70;99.90;;;;;;5061942;28;20569;-73
2023/08/24 05:56:31;;;;;;;9.10;5.80;;;15.80;99.90;;;;;;5065154;28;20328;-75
2023/08/24 05:58:58;;;;;;;6.20;5.30;;;15.90;99.90;;;;;;5053048;28;20529;-75
2023/08/24 06:01:24;;;;;;;6.27;5.67;;;15.90;99.90;;;;;;5051391;28;20521;-69
2023/08/24 06:03:50;;;;;;;5.43;4.87;;;15.90;99.90;;;;;;5052671;28;20449;-69
2023/08/24 06:06:16;;;;;;;7.17;5.00;;;15.90;99.90;;;;;;5054750;28;20440;-69
2023/08/24 06:08:43;;;;;;;8.07;5.50;;;16.00;99.90;;;;;;5071116;28;20460;-75
2023/08/24 06:11:09;;;;;;;4.50;4.20;;;16.00;99.90;;;;;;5072828;28;20396;-69
2023/08/24 06:13:35;;;;;;;5.97;5.47;;;16.10;99.90;;;;;;5073022;28;20908;-74
2023/08/24 06:16:01;;;;;;;5.93;4.53;;;16.20;99.90;;;;;;5070663;28;20505;-69
2023/08/24 06:18:28;;;;;;;5.37;4.87;;;16.30;99.90;;;;;;5072914;28;20424;-69
2023/08/24 06:20:54;;;;;;;9.37;5.07;;;16.30;99.90;;;;;;5071955;28;20474;-74
2023/08/24 06:23:21;;;;;;;6.07;5.13;;;16.40;1.00;;;;;;5066248;28;20476;-69
2023/08/24 06:25:47;;;;;;;6.63;4.97;;;16.50;1.00;;;;;;5061426;28;20441;-75
2023/08/24 06:28:13;;;;;;;6.07;4.20;;;16.50;1.00;;;;;;5051943;28;20897;-74
2023/08/24 06:30:40;;;;;;;6.17;5.50;;;16.60;1.00;;;;;;5053061;28;20932;-69
2023/08/24 06:33:06;;;;;;;3.93;3.57;;;16.70;1.00;;;;;;5067434;28;20429;-72
2023/08/24 06:35:33;;;;;;;4.20;3.43;;;16.80;1.00;;;;;;5051802;28;20433;-68
2023/08/24 06:37:59;;;;;;;6.83;3.70;;;16.80;1.00;;;;;;5052176;28;20825;-71
2023/08/24 06:40:24;;;;;;;5.73;3.30;;;16.90;1.00;;;;;;5054396;28;20413;-73
2023/08/24 06:42:50;;;;;;;5.43;3.50;;;16.90;1.00;;;;;;5056769;28;20406;-69
2023/08/24 06:45:18;;;;;;;4.63;3.60;;;17.00;1.00;;;;;;5055886;28;20222;-69
2023/08/24 06:47:44;;;;;;;5.90;4.20;;;17.10;1.00;;;;;;5056074;28;20214;-72
2023/08/24 06:50:10;;;;;;;5.60;3.53;;;17.10;99.90;;;;;;5055770;28;20429;-66
2023/08/24 06:52:35;;;;;;;3.70;2.57;;;17.10;99.90;;;;;;5056636;28;20759;-72
2023/08/24 06:55:03;;;;;;;5.80;2.87;;;17.20;99.90;;;;;;5057119;28;20421;-73
2023/08/24 06:57:29;;;;;;;5.67;3.03;;;17.30;99.90;;;;;;5076420;28;20194;-66
2023/08/24 06:59:54;;;;;;;2.70;2.50;;;17.40;99.90;;;;;;5073221;28;20825;-68
2023/08/24 07:02:20;;;;;;;5.20;3.00;;;17.30;99.90;;;;;;5055573;28;20496;-72
2023/08/24 07:04:46;;;;;;;6.77;2.23;;;17.40;99.90;;;;;;5055506;28;20209;-67
2023/08/24 07:07:12;;;;;;;7.10;2.90;;;17.60;99.90;;;;;;5055299;28;20236;-72
2023/08/24 07:09:38;;;;;;;8.90;2.70;;;17.70;99.90;;;;;;5056213;28;20397;-73
2023/08/24 07:12:06;;;;;;;2.00;1.90;;;17.70;99.90;;;;;;5055096;28;20551;-66
2023/08/24 07:14:32;;;;;;;6.97;2.57;;;17.80;99.90;;;;;;5074697;28;20167;-73
2023/08/24 07:16:58;;;;;;;7.83;2.50;;;17.80;99.90;;;;;;5056485;28;20441;-67
2023/08/24 07:19:24;;;;;;;4.93;2.70;;;17.90;99.90;;;;;;5055642;28;20956;-73
2023/08/24 07:21:50;;;;;;;3.10;2.27;;;17.90;99.90;;;;;;5055965;28;20174;-71
2023/08/24 07:24:18;;;;;;;6.43;2.20;;;18.00;99.90;;;;;;5055669;28;20175;-67
2023/08/24 07:26:45;;;;;;;5.67;2.40;;;18.10;99.90;;;;;;5055154;28;20261;-72
2023/08/24 07:29:11;;;;;;;4.80;2.23;;;18.10;99.90;;;;;;5055919;28;20929;-67
2023/08/24 07:31:37;;;;;;;2.70;1.90;;;18.10;99.90;;;;;;5066598;28;20439;-67
2023/08/24 07:34:03;;;;;;;2.00;1.70;;;18.20;99.90;;;;;;5074752;28;20416;-72
2023/08/24 07:36:30;;;;;;;1.90;1.77;;;18.20;99.90;;;;;;5074392;28;20400;-66
2023/08/24 07:38:56;;;;;;;2.97;1.60;;;18.20;99.90;;;;;;5075378;28;20452;-67
2023/08/24 07:41:22;;;;;;;2.37;1.73;;;18.40;99.90;;;;;;5074985;28;20435;-73
2023/08/24 07:43:47;;;;;;;2.00;1.90;;;18.50;99.90;;;;;;5075565;28;20408;-67
2023/08/24 07:46:13;;;;;;;4.37;1.70;;;18.60;99.90;;;;;;5066888;28;20940;-67
2023/08/24 07:48:39;;;;;;;2.73;1.63;;;18.70;99.90;;;;;;5054349;28;20219;-70
2023/08/24 07:51:07;;;;;;;5.33;2.13;;;18.70;99.90;;;;;;5063060;28;20601;-72
2023/08/24 07:53:33;;;;;;;5.50;2.37;;;18.70;99.90;;;;;;5075486;28;20412;-69
2023/08/24 07:55:59;;;;;;;4.23;1.50;;;18.80;99.90;;;;;;5073919;28;20411;-68
2023/08/24 07:58:25;;;;;;;1.93;1.70;;;18.80;99.90;;;;;;5075446;28;20256;-68
2023/08/24 08:00:52;;;;;;;2.07;1.60;;;18.90;99.90;;;;;;5069282;28;20199;-71
2023/08/24 08:03:19;;;;;;;3.20;1.50;;;19.00;99.90;;;;;;5055425;28;20397;-66
2023/08/24 08:05:45;;;;;;;4.37;2.13;;;19.10;99.90;;;;;;5054269;28;20420;-72
2023/08/24 08:08:13;;;;;;;3.10;1.77;;;19.10;99.90;;;;;;5055094;28;20523;-72
2023/08/24 08:10:39;;;;;;;4.43;1.90;;;19.10;95.40;;;;;;5058889;28;20515;-73
2023/08/24 08:13:04;;;;;;;4.50;1.37;;;19.10;88.10;;;;;;5075108;28;20840;-67
2023/08/24 08:15:30;;;;;;;1.70;1.60;;;19.20;79.50;;;;;;5053439;28;20217;-67
2023/08/24 08:17:56;;;;;;;3.83;1.73;;;19.30;57.20;;;;;;5054843;28;20537;-69
2023/08/24 08:20:21;;;;;;;2.40;1.70;;;19.30;43.70;;;;;;5063545;28;20178;-66
2023/08/24 08:22:47;;;;;;;3.63;1.50;;;19.40;32.00;;;;;;5058971;28;20186;-69
2023/08/24 08:25:13;;;;;;;2.50;1.13;;;19.50;24.10;;;;;;5067001;28;20179;-67
2023/08/24 08:27:39;;;;;;;3.20;2.30;;;19.50;8.30;;;;;;5074875;28;20202;-69
2023/08/24 08:30:05;;;;;;;2.57;1.37;;;19.60;9.40;;;;;;5074407;28;20547;-67
2023/08/24 08:32:31;;;;;;;2.50;1.87;;;19.70;12.50;;;;;;5074556;28;20208;-69
2023/08/24 08:34:58;;;;;;;6.13;2.03;;;19.80;12.40;;;;;;5074484;28;20865;-69
2023/08/24 08:37:24;;;;;;;1.63;1.47;;;20.00;8.00;;;;;;5059595;28;20806;-66
2023/08/24 08:39:50;;;;;;;3.50;1.13;;;20.10;6.10;;;;;;5069756;28;20413;-66
2023/08/24 08:42:15;;;;;;;3.40;1.63;;;20.20;1.00;;;;;;5074602;28;20821;-69
2023/08/24 08:44:43;;;;;;;3.37;2.30;;;20.30;1.00;;;;;;5074612;28;20662;-69
2023/08/24 08:47:10;;;;;;;2.13;1.07;;;20.20;1.00;;;;;;5073230;28;20202;-71
2023/08/24 08:49:38;;;;;;;2.10;1.37;;;20.30;1.00;;;;;;5073877;28;20407;-69
2023/08/24 08:52:05;;;;;;;3.30;1.30;;;20.50;1.00;;;;;;5073338;28;20503;-71
2023/08/24 08:54:32;;;;;;;4.60;1.20;;;20.70;1.00;;;;;;5074199;28;20429;-66
2023/08/24 08:56:59;;;;;;;2.33;1.10;;;20.70;1.00;;;;;;5072658;28;20912;-67
2023/08/24 08:59:30;;;;;;;4.50;1.23;;;20.70;1.00;;;;;;5074285;28;20430;-66
2023/08/24 09:01:58;;;;;;;2.93;1.20;;;20.70;1.00;;;;;;5073553;28;20408;-69
2023/08/24 09:04:33;;;;;;;1.40;1.13;;;20.60;1.00;;;;;;5074109;28;20499;-69
2023/08/24 09:07:03;;;;;;;2.57;1.30;;;20.80;1.00;;;;;;5073023;28;20455;-66
2023/08/24 09:09:29;;;;;;;1.93;1.00;;;21.00;1.00;;;;;;5073711;28;20409;-69
2023/08/24 09:11:55;;;;;;;2.03;1.20;;;21.10;1.00;;;;;;5072780;28;20425;-72
2023/08/24 09:14:21;;;;;;;2.57;1.00;;;21.20;1.00;;;;;;5055327;28;20236;-70
2023/08/24 09:16:47;;;;;;;3.03;1.40;;;21.30;1.00;;;;;;5052943;28;20637;-70
2023/08/24 09:19:13;;;;;;;1.47;0.90;;;21.40;1.00;;;;;;5052538;28;20466;-64
2023/08/24 09:21:41;;;;;;;1.73;1.03;;;21.70;1.00;;;;;;5053893;28;20615;-64
2023/08/24 09:24:07;;;;;;;1.30;1.10;;;22.00;1.00;;;;;;5053838;28;20414;-68
2023/08/24 09:26:36;;;;;;;1.77;0.97;;;22.30;1.00;;;;;;5052144;28;20497;-67
2023/08/24 09:29:15;;;;;;;2.30;1.20;;;22.60;1.00;;;;;;5053960;28;20452;-68
2023/08/24 09:31:43;;;;;;;1.90;1.10;;;22.90;1.00;;;;;;5053826;28;20398;-67
2023/08/24 09:34:09;;;;;;;2.40;1.53;;;23.20;1.00;;;;;;5053715;28;20397;-67
2023/08/24 09:36:36;;;;;;;1.60;0.97;;;23.30;1.00;;;;;;5052702;28;20436;-66
2023/08/24 09:39:04;;;;;;;4.87;1.20;;;23.50;1.00;;;;;;5053428;28;20445;-69
2023/08/24 09:41:41;;;;;;;2.17;1.30;;;23.80;1.00;;;;;;5053440;28;20428;-64
2023/08/24 09:44:08;;;;;;;3.77;1.20;;;23.80;1.00;;;;;;5053377;28;20754;-64
2023/08/24 09:46:36;;;;;;;2.40;1.10;;;23.90;1.00;;;;;;5055691;28;20496;-67
2023/08/24 09:49:05;;;;;;;2.90;1.70;;;24.20;1.00;;;;;;5073090;28;20471;-62
2023/08/24 09:51:32;;;;;;;2.73;1.10;;;24.30;1.00;;;;;;5073276;28;20865;-67
2023/08/24 09:54:01;;;;;;;1.10;0.70;;;24.70;1.00;;;;;;5073270;28;20567;-68
2023/08/24 09:56:28;;;;;;;2.27;0.83;;;24.90;1.00;;;;;;5071357;28;20421;-63
2023/08/24 09:58:59;;;;;;;1.47;0.93;;;25.20;1.00;;;;;;5073005;28;20485;-65
2023/08/24 10:01:25;;;;;;;2.87;1.07;;;25.40;1.00;;;;;;5073191;28;20400;-67
2023/08/24 10:03:56;;;;;;;2.27;0.97;;;25.40;1.00;;;;;;5065433;28;20428;-65
2023/08/24 10:06:23;;;;;;;2.43;1.20;;;25.60;1.00;;;;;;5051935;28;20173;-69
2023/08/24 10:08:54;;;;;;;2.50;1.20;;;25.70;1.00;;;;;;5052826;28;20453;-68
2023/08/24 10:11:26;;;;;;;1.20;1.00;;;25.60;1.00;;;;;;5053001;28;20409;-64
2023/08/24 10:14:08;;;;;;;3.90;1.10;;;25.80;99.90;;;;;;5066088;28;20412;-70
2023/08/24 10:16:36;;;;;;;3.10;1.20;;;25.90;99.90;;;;;;5072104;28;20420;-64
2023/08/24 10:19:03;;;;;;;1.20;0.87;;;26.20;99.90;;;;;;5072590;28;20879;-70
2023/08/24 10:21:30;;;;;;;2.50;1.17;;;26.50;99.90;;;;;;5060125;28;20443;-64
2023/08/24 10:23:57;;;;;;;4.10;1.10;;;26.40;99.90;;;;;;5052654;28;20906;-70
2023/08/24 10:26:26;;;;;;;3.43;1.13;;;26.30;99.90;;;;;;5051629;28;20496;-70
2023/08/24 10:28:53;;;;;;;1.60;1.00;;;25.80;99.90;;;;;;5052655;28;20452;-68
2023/08/24 10:31:19;;;;;;;4.00;1.63;;;25.60;99.90;;;;;;5052665;28;20492;-70
2023/08/24 10:33:49;;;;;;;1.80;1.20;;;25.80;99.90;;;;;;5052602;28;20866;-67
2023/08/24 10:36:17;;;;;;;1.87;1.20;;;26.20;99.90;;;;;;5051818;28;20428;-63
2023/08/24 10:38:43;;;;;;;2.50;1.00;;;26.10;99.90;;;;;;5053198;28;20515;-67
2023/08/24 10:41:13;;;;;;;3.90;1.47;;;26.40;99.90;;;;;;5051666;28;20435;-67
2023/08/24 10:43:40;;;;;;;1.87;1.10;;;26.30;99.90;;;;;;5052701;28;20409;-70
2023/08/24 10:46:13;;;;;;;4.33;1.30;;;26.40;1.00;;;;;;5051067;28;20409;-69
2023/08/24 10:48:42;;;;;;;2.63;1.10;;;26.80;1.00;;;;;;5052531;28;20491;-65
2023/08/24 10:51:17;;;;;;;5.60;1.57;;;27.10;99.90;;;;;;5051601;28;20416;-70
2023/08/24 10:53:59;;;;;;;2.17;1.40;;;27.10;99.90;;;;;;5052531;28;20782;-70
2023/08/24 10:56:33;;;;;;;1.93;0.90;;;27.40;99.90;;;;;;5071073;28;20407;-67
2023/08/24 10:59:15;;;;;;;1.33;1.23;;;27.80;1.00;;;;;;5072536;28;20418;-64
2023/08/24 11:01:55;;;;;;;1.77;0.87;;;28.10;99.90;;;;;;5072526;28;20436;-67
2023/08/24 11:04:21;;;;;;;6.70;1.70;;;28.40;99.90;;;;;;5071912;28;20411;-70
2023/08/24 11:06:55;;;;;;;2.60;0.97;;;28.50;99.90;;;;;;5071503;28;20401;-69
2023/08/24 11:09:22;;;;;;;2.77;1.30;;;28.60;99.90;;;;;;5072460;28;20407;-66
2023/08/24 11:11:58;;;;;;;1.40;0.97;;;28.70;99.90;;;;;;5070285;28;20842;-68
2023/08/24 11:14:28;;;;;;;5.83;1.20;;;29.00;99.90;;;;;;5053923;28;20416;-70
2023/08/24 11:16:58;;;;;;;2.63;1.20;;;29.30;99.90;;;;;;5051359;28;20417;-64
2023/08/24 11:19:24;;;;;;;2.63;1.27;;;29.60;99.90;;;;;;5052174;28;20416;-66
2023/08/24 11:21:51;;;;;;;1.73;0.90;;;29.80;99.90;;;;;;5051928;28;20426;-64
2023/08/24 11:24:17;;;;;;;1.87;0.90;;;29.80;99.90;;;;;;5051332;28;20455;-65
2023/08/24 11:26:48;;;;;;;1.77;1.10;;;29.70;99.90;;;;;;5054760;28;20437;-69
2023/08/24 11:29:15;;;;;;;6.00;1.53;;;30.00;99.90;;;;;;5056691;28;20648;-69
2023/08/24 11:31:41;;;;;;;3.33;1.10;;;30.00;99.90;;;;;;5055892;28;20480;-65
2023/08/24 11:34:07;;;;;;;1.60;1.00;;;29.90;99.90;;;;;;5055702;28;20942;-64
2023/08/24 11:36:47;;;;;;;5.17;1.40;;;29.70;99.90;;;;;;5054896;28;20401;-69
2023/08/24 11:39:20;;;;;;;6.10;1.10;;;29.50;99.90;;;;;;5055204;28;20432;-64
2023/08/24 11:42:00;;;;;;;1.47;1.27;;;29.10;99.90;;;;;;5055732;28;20406;-69
2023/08/24 11:44:26;;;;;;;4.00;1.00;;;29.20;99.90;;;;;;5054417;28;20412;-65
2023/08/24 11:46:52;;;;;;;2.73;0.90;;;29.10;99.90;;;;;;5055260;28;20762;-64
2023/08/24 11:49:17;;;;;;;2.37;1.10;;;28.90;99.90;;;;;;5055800;28;20213;-65
2023/08/24 11:51:43;;;;;;;1.60;1.00;;;28.60;99.90;;;;;;5055533;28;20170;-69
2023/08/24 11:54:09;;;;;;;1.47;0.90;;;28.10;99.90;;;;;;5055485;28;20393;-64
2023/08/24 11:56:43;;;;;;;3.73;1.20;;;27.80;99.90;;;;;;5054748;28;20171;-64
2023/08/24 11:59:13;;;;;;;3.63;1.20;;;27.50;99.90;;;;;;5054783;28;20210;-70
2023/08/24 12:01:41;;;;;;;1.83;1.00;;;27.60;99.90;;;;;;5055307;28;20401;-66
2023/08/24 12:04:07;;;;;;;1.60;1.10;;;27.70;99.90;;;;;;5055840;28;20763;-70
2023/08/24 12:06:33;;;;;;;2.60;1.20;;;27.70;99.90;;;;;;5054504;28;20416;-70
2023/08/24 12:08:59;;;;;;;2.37;1.00;;;27.80;99.90;;;;;;5053880;28;20214;-69
2023/08/24 12:11:26;;;;;;;2.07;1.30;;;27.60;99.90;;;;;;5055203;28;20245;-70
2023/08/24 12:13:53;;;;;;;1.80;1.10;;;27.30;99.90;;;;;;5068750;28;20181;-71
2023/08/24 12:16:20;;;;;;;2.83;1.20;;;27.10;99.90;;;;;;5073954;28;20400;-65
2023/08/24 12:18:59;;;;;;;3.13;1.13;;;27.10;99.90;;;;;;5075017;28;20424;-65
2023/08/24 12:21:25;;;;;;;1.77;1.20;;;27.10;99.90;;;;;;5074505;28;20419;-66
2023/08/24 12:24:09;;;;;;;1.47;1.10;;;26.40;99.90;;;;;;5073494;28;20819;-64
2023/08/24 12:26:35;;;;;;;2.47;1.07;;;25.80;99.90;;;;;;5074167;28;20443;-69
2023/08/24 12:29:06;;;;;;;4.37;1.50;;;25.40;99.90;;;;;;5074681;28;20501;-63
2023/08/24 12:31:32;;;;;;;2.43;1.70;;;25.60;99.90;;;;;;5074871;28;20400;-64
2023/08/24 12:34:05;;;;;;;6.30;1.43;;;25.50;99.90;;;;;;5074223;28;20893;-68
2023/08/24 12:36:33;;;;;;;4.17;1.80;;;25.80;99.90;;;;;;5072264;28;20413;-64
2023/08/24 12:38:59;;;;;;;1.80;0.97;;;26.20;99.90;;;;;;5074592;28;20420;-69
2023/08/24 12:41:25;;;;;;;1.87;1.20;;;26.50;99.90;;;;;;5073451;28;20425;-68
2023/08/24 12:43:52;;;;;;;2.07;1.20;;;26.50;99.90;;;;;;5067864;28;20779;-63
2023/08/24 12:46:17;;;;;;;2.90;2.50;;;26.40;99.90;;;;;;5054733;28;20270;-68
2023/08/24 12:48:43;;;;;;;3.23;1.40;;;26.70;99.90;;;;;;5054416;28;20543;-68